createdAt,value
2022-12-09T00:00:11.924Z,3.61
2022-12-09T00:01:15.416Z,3.61
2022-12-09T00:02:18.302Z,3.60
2022-12-09T00:03:23.667Z,3.58
2022-12-09T00:04:27.101Z,3.56
2022-12-09T00:05:28.883Z,3.55
2022-12-09T00:06:31.866Z,3.52
2022-12-09T00:07:35.598Z,3.51
2022-12-09T00:08:38.485Z,3.50
2022-12-09T00:09:40.348Z,3.52
2022-12-09T00:10:46.000Z,3.53
2022-12-09T00:11:48.588Z,3.52
2022-12-09T00:12:55.187Z,3.51
2022-12-09T00:13:58.927Z,3.52
2022-12-09T00:15:01.592Z,3.52
2022-12-09T00:16:06.245Z,3.54
2022-12-09T00:17:09.179Z,3.52
2022-12-09T00:18:11.155Z,3.48
2022-12-09T00:19:13.950Z,3.47
2022-12-09T00:20:15.662Z,3.45
2022-12-09T00:21:20.698Z,3.45
2022-12-09T00:22:22.487Z,3.45
2022-12-09T00:23:25.204Z,3.46
2022-12-09T00:24:27.142Z,3.45
2022-12-09T00:25:30.244Z,3.44
2022-12-09T00:26:34.074Z,3.43
2022-12-09T00:27:36.824Z,3.42
2022-12-09T00:28:39.087Z,3.41
2022-12-09T00:29:41.984Z,3.40
2022-12-09T00:30:43.755Z,3.39
2022-12-09T00:31:46.806Z,3.38
2022-12-09T00:32:48.717Z,3.39
2022-12-09T00:33:51.818Z,3.39
2022-12-09T00:34:53.584Z,3.41
2022-12-09T00:35:56.492Z,3.43
2022-12-09T00:36:58.265Z,3.45
2022-12-09T00:38:00.981Z,3.47
2022-12-09T00:39:02.735Z,3.50
2022-12-09T00:40:07.189Z,3.53
2022-12-09T00:41:09.385Z,3.56
2022-12-09T00:42:13.439Z,3.57
2022-12-09T00:43:15.362Z,3.60
2022-12-09T00:44:18.434Z,3.61
2022-12-09T00:45:20.220Z,3.63
2022-12-09T00:46:23.286Z,3.64
2022-12-09T00:47:25.286Z,3.66
2022-12-09T00:48:28.927Z,3.67
2022-12-09T00:49:31.700Z,3.71
2022-12-09T00:50:33.551Z,3.71
2022-12-09T00:51:36.350Z,3.72
2022-12-09T00:52:38.005Z,3.75
2022-12-09T00:53:40.742Z,3.75
2022-12-09T00:54:42.519Z,3.76
2022-12-09T00:55:46.082Z,3.78
2022-12-09T00:56:47.851Z,3.76
2022-12-09T00:57:51.890Z,3.76
2022-12-09T00:58:53.814Z,3.75
2022-12-09T00:59:57.135Z,3.77
2022-12-09T01:00:58.923Z,3.76
2022-12-09T01:02:01.762Z,3.75
2022-12-09T01:03:03.798Z,3.74
2022-12-09T01:04:08.768Z,3.74
2022-12-09T01:05:10.876Z,3.74
2022-12-09T01:06:16.145Z,3.75
2022-12-09T01:07:17.944Z,3.76
2022-12-09T01:08:20.663Z,3.75
2022-12-09T01:09:22.807Z,3.75
2022-12-09T01:10:25.565Z,3.74
2022-12-09T01:11:28.502Z,3.72
2022-12-09T01:12:31.430Z,3.70
2022-12-09T01:13:34.519Z,3.69
2022-12-09T01:14:37.231Z,3.67
2022-12-09T01:15:39.496Z,3.65
2022-12-09T01:16:42.293Z,3.64
2022-12-09T01:17:44.229Z,3.61
2022-12-09T01:18:47.399Z,3.58
2022-12-09T01:19:50.277Z,3.57
2022-12-09T01:20:56.776Z,3.54
2022-12-09T01:21:59.570Z,3.52
2022-12-09T01:23:01.751Z,3.50
2022-12-09T01:24:09.219Z,3.50
2022-12-09T01:25:11.084Z,3.49
2022-12-09T01:26:13.970Z,3.50
2022-12-09T01:27:16.175Z,3.50
2022-12-09T01:28:19.140Z,3.50
2022-12-09T01:29:22.227Z,3.51
2022-12-09T01:30:24.955Z,3.51
2022-12-09T01:31:26.799Z,3.50
2022-12-09T01:32:29.798Z,3.52
2022-12-09T01:33:31.590Z,3.52
2022-12-09T01:34:34.411Z,3.52
2022-12-09T01:35:40.368Z,3.50
2022-12-09T01:36:43.014Z,3.52
2022-12-09T01:37:44.971Z,3.51
2022-12-09T01:38:48.588Z,3.52
2022-12-09T01:39:50.368Z,3.52
2022-12-09T01:40:53.041Z,3.54
2022-12-09T01:41:54.887Z,3.54
2022-12-09T01:42:57.613Z,3.55
2022-12-09T01:44:26.074Z,3.56
2022-12-09T01:45:40.363Z,3.56
2022-12-09T01:46:43.791Z,3.55
2022-12-09T01:47:46.593Z,3.54
2022-12-09T01:48:49.394Z,3.53
2022-12-09T01:49:51.146Z,3.52
2022-12-09T01:50:56.943Z,3.50
2022-12-09T01:52:03.962Z,3.48
2022-12-09T01:53:06.379Z,3.45
2022-12-09T01:54:09.738Z,3.45
2022-12-09T01:55:12.197Z,3.42
2022-12-09T01:56:19.205Z,3.42
2022-12-09T01:57:20.879Z,3.42
2022-12-09T01:58:23.563Z,3.41
2022-12-09T01:59:27.716Z,3.41
2022-12-09T02:00:30.387Z,3.41
2022-12-09T02:01:32.234Z,3.40
2022-12-09T02:02:36.929Z,3.40
2022-12-09T02:03:39.006Z,3.39
2022-12-09T02:04:46.112Z,3.40
2022-12-09T02:05:49.912Z,3.40
2022-12-09T02:06:53.058Z,3.41
2022-12-09T02:07:55.169Z,3.40
2022-12-09T02:08:58.512Z,3.41
2022-12-09T02:10:00.721Z,3.42
2022-12-09T02:11:09.023Z,3.42
2022-12-09T02:12:16.723Z,3.40
2022-12-09T02:13:25.310Z,3.42
2022-12-09T02:14:33.529Z,3.43
2022-12-09T02:15:38.212Z,3.43
2022-12-09T02:16:47.057Z,3.44
2022-12-09T02:17:51.777Z,3.44
2022-12-09T02:18:59.054Z,3.43
2022-12-09T02:20:07.205Z,3.44
2022-12-09T02:21:13.230Z,3.44
2022-12-09T02:22:19.258Z,3.44
2022-12-09T02:23:26.260Z,3.44
2022-12-09T02:24:34.778Z,3.43
2022-12-09T02:25:41.761Z,3.43
2022-12-09T02:26:46.816Z,3.42
2022-12-09T02:27:51.074Z,3.41
2022-12-09T02:29:10.307Z,3.41
2022-12-09T02:30:15.738Z,3.38
2022-12-09T02:31:25.888Z,3.36
2022-12-09T02:32:51.530Z,3.35
2022-12-09T02:34:04.336Z,3.34
2022-12-09T02:35:08.971Z,3.33
2022-12-09T02:36:14.669Z,3.32
2022-12-09T02:37:20.143Z,3.32
2022-12-09T02:38:25.326Z,3.31
2022-12-09T02:39:31.175Z,3.31
2022-12-09T02:40:36.952Z,3.30
2022-12-09T02:41:40.064Z,3.30
2022-12-09T02:42:43.844Z,3.29
2022-12-09T02:43:50.098Z,3.29
2022-12-09T02:44:53.898Z,3.28
2022-12-09T02:45:57.945Z,3.28
2022-12-09T02:46:59.831Z,3.26
2022-12-09T02:48:03.745Z,3.27
2022-12-09T02:49:07.391Z,3.26
2022-12-09T02:50:13.469Z,3.26
2022-12-09T02:51:18.148Z,3.27
2022-12-09T02:52:21.746Z,3.26
2022-12-09T02:53:24.714Z,3.25
2022-12-09T02:54:30.056Z,3.25
2022-12-09T02:55:32.707Z,3.24
2022-12-09T02:56:36.311Z,3.23
2022-12-09T02:57:38.878Z,3.22
2022-12-09T02:58:41.525Z,3.21
2022-12-09T02:59:43.592Z,3.21
2022-12-09T03:00:46.316Z,3.22
2022-12-09T03:01:52.207Z,3.22
2022-12-09T03:02:57.893Z,3.22
2022-12-09T03:03:59.945Z,3.23
2022-12-09T03:05:11.319Z,3.24
2022-12-09T03:06:15.138Z,3.24
2022-12-09T03:07:22.601Z,3.22
2022-12-09T03:08:29.275Z,3.22
2022-12-09T03:09:34.924Z,3.21
2022-12-09T03:10:38.734Z,3.18
2022-12-09T03:11:42.025Z,3.20
2022-12-09T03:12:48.134Z,3.19
2022-12-09T03:13:56.694Z,3.19
2022-12-09T03:14:59.387Z,3.17
2022-12-09T03:16:08.500Z,3.14
2022-12-09T03:17:14.018Z,3.14
2022-12-09T03:18:18.471Z,3.13
2022-12-09T03:19:24.083Z,3.11
2022-12-09T03:20:29.032Z,3.09
2022-12-09T03:21:33.434Z,3.08
2022-12-09T03:22:36.276Z,3.07
2022-12-09T03:23:39.379Z,3.06
2022-12-09T03:24:44.920Z,3.06
2022-12-09T03:25:50.783Z,3.06
2022-12-09T03:26:53.196Z,3.06
2022-12-09T03:27:58.994Z,3.07
2022-12-09T03:29:04.276Z,3.07
2022-12-09T03:30:10.074Z,3.06
2022-12-09T03:31:16.354Z,3.06
2022-12-09T03:32:22.358Z,3.05
2022-12-09T03:33:25.769Z,3.04
2022-12-09T03:34:31.740Z,3.04
2022-12-09T03:35:38.314Z,3.04
2022-12-09T03:36:41.557Z,3.03
2022-12-09T03:37:45.334Z,3.03
2022-12-09T03:38:48.395Z,3.01
2022-12-09T03:39:51.646Z,3.00
2022-12-09T03:40:58.120Z,2.98
2022-12-09T03:42:05.034Z,2.97
2022-12-09T03:43:12.424Z,2.95
2022-12-09T03:44:18.693Z,2.95
2022-12-09T03:45:21.350Z,2.94
2022-12-09T03:46:24.509Z,2.93
2022-12-09T03:47:26.867Z,2.93
2022-12-09T03:48:29.899Z,2.92
2022-12-09T03:49:32.010Z,2.91
2022-12-09T03:50:42.529Z,2.92
2022-12-09T03:51:47.939Z,2.91
2022-12-09T03:52:54.007Z,2.90
2022-12-09T03:53:59.481Z,2.89
2022-12-09T03:55:07.021Z,2.87
2022-12-09T03:56:14.261Z,2.87
2022-12-09T03:57:19.815Z,2.86
2022-12-09T03:58:21.962Z,2.85
2022-12-09T03:59:28.703Z,2.82
2022-12-09T04:00:31.143Z,2.83
2022-12-09T04:01:34.514Z,2.83
2022-12-09T04:02:36.854Z,2.81
2022-12-09T04:03:40.090Z,2.80
2022-12-09T04:04:43.515Z,2.78
2022-12-09T04:05:47.342Z,2.77
2022-12-09T04:06:52.379Z,2.76
2022-12-09T04:07:54.231Z,2.75
2022-12-09T04:09:02.147Z,2.73
2022-12-09T04:10:05.809Z,2.71
2022-12-09T04:11:09.226Z,2.70
2022-12-09T04:12:11.104Z,2.68
2022-12-09T04:13:13.774Z,2.68
2022-12-09T04:14:16.210Z,2.65
2022-12-09T04:15:19.450Z,2.65
2022-12-09T04:16:21.244Z,2.65
2022-12-09T04:17:24.241Z,2.65
2022-12-09T04:18:26.315Z,2.66
2022-12-09T04:19:29.180Z,2.66
2022-12-09T04:20:31.497Z,2.66
2022-12-09T04:21:35.908Z,2.68
2022-12-09T04:22:37.671Z,2.68
2022-12-09T04:23:43.218Z,2.68
2022-12-09T04:24:45.304Z,2.68
2022-12-09T04:25:48.083Z,2.69
2022-12-09T04:26:50.177Z,2.68
2022-12-09T04:27:53.564Z,2.68
2022-12-09T04:28:55.525Z,2.65
2022-12-09T04:29:58.265Z,2.63
2022-12-09T04:31:00.448Z,2.60
2022-12-09T04:32:03.611Z,2.58
2022-12-09T04:33:05.338Z,2.56
2022-12-09T04:34:09.855Z,2.55
2022-12-09T04:35:11.945Z,2.54
2022-12-09T04:36:16.248Z,2.52
2022-12-09T04:37:19.678Z,2.52
2022-12-09T04:38:22.845Z,2.53
2022-12-09T04:39:24.737Z,2.54
2022-12-09T04:40:27.700Z,2.54
2022-12-09T04:41:29.667Z,2.53
2022-12-09T04:42:32.679Z,2.52
2022-12-09T04:43:35.046Z,2.51
2022-12-09T04:44:37.902Z,2.52
2022-12-09T04:45:39.759Z,2.52
2022-12-09T04:46:42.462Z,2.51
2022-12-09T04:47:44.380Z,2.51
2022-12-09T04:48:47.215Z,2.51
2022-12-09T04:49:49.118Z,2.51
2022-12-09T04:50:51.925Z,2.50
2022-12-09T04:51:53.853Z,2.49
2022-12-09T04:52:57.939Z,2.50
2022-12-09T04:53:59.939Z,2.49
2022-12-09T04:55:02.726Z,2.49
2022-12-09T04:56:07.232Z,2.49
2022-12-09T04:57:12.421Z,2.47
2022-12-09T04:58:14.267Z,2.46
2022-12-09T04:59:17.417Z,2.45
2022-12-09T05:00:20.151Z,2.46
2022-12-09T05:01:30.153Z,2.44
2022-12-09T05:02:33.388Z,2.43
2022-12-09T05:03:36.886Z,2.42
2022-12-09T05:04:38.865Z,2.41
2022-12-09T05:05:42.456Z,2.40
2022-12-09T05:06:45.559Z,2.39
2022-12-09T05:07:47.689Z,2.37
2022-12-09T05:08:52.645Z,2.37
2022-12-09T05:09:55.909Z,2.34
2022-12-09T05:10:58.066Z,2.35
2022-12-09T05:12:01.105Z,2.35
2022-12-09T05:13:03.291Z,2.36
2022-12-09T05:14:06.221Z,2.36
2022-12-09T05:15:09.266Z,2.38
2022-12-09T05:16:17.037Z,2.36
2022-12-09T05:17:19.233Z,2.37
2022-12-09T05:18:22.557Z,2.37
2022-12-09T05:19:24.963Z,2.37
2022-12-09T05:20:29.814Z,2.37
2022-12-09T05:21:31.958Z,2.36
2022-12-09T05:22:34.805Z,2.37
2022-12-09T05:23:37.021Z,2.37
2022-12-09T05:24:43.992Z,2.36
2022-12-09T05:25:46.127Z,2.35
2022-12-09T05:26:49.029Z,2.33
2022-12-09T05:27:50.903Z,2.32
2022-12-09T05:28:53.729Z,2.31
2022-12-09T05:29:55.894Z,2.32
2022-12-09T05:31:01.046Z,2.30
2022-12-09T05:32:02.998Z,2.29
2022-12-09T05:33:06.759Z,2.29
2022-12-09T05:34:08.733Z,2.27
2022-12-09T05:35:12.188Z,2.25
2022-12-09T05:36:15.864Z,2.23
2022-12-09T05:37:18.839Z,2.20
2022-12-09T05:38:21.888Z,2.18
2022-12-09T05:39:24.696Z,2.17
2022-12-09T05:40:27.681Z,2.14
2022-12-09T05:41:30.403Z,2.13
2022-12-09T05:42:37.864Z,2.12
2022-12-09T05:43:44.014Z,2.11
2022-12-09T05:44:46.056Z,2.09
2022-12-09T05:45:49.124Z,2.10
2022-12-09T05:46:52.146Z,2.09
2022-12-09T05:47:54.288Z,2.09
2022-12-09T05:48:57.078Z,2.08
2022-12-09T05:50:03.085Z,2.07
2022-12-09T05:51:13.206Z,2.08
2022-12-09T05:52:15.154Z,2.06
2022-12-09T05:53:18.351Z,2.05
2022-12-09T05:54:20.214Z,2.05
2022-12-09T05:55:23.343Z,2.02
2022-12-09T05:56:26.963Z,2.01
2022-12-09T05:57:30.414Z,2.00
2022-12-09T05:58:32.583Z,1.98
2022-12-09T05:59:35.511Z,1.98
2022-12-09T06:00:37.603Z,1.97
2022-12-09T06:01:40.817Z,1.96
2022-12-09T06:02:42.832Z,1.94
2022-12-09T06:03:48.283Z,1.93
2022-12-09T06:04:50.624Z,1.91
2022-12-09T06:05:54.278Z,1.91
2022-12-09T06:06:57.838Z,1.89
2022-12-09T06:08:05.103Z,1.86
2022-12-09T06:09:11.792Z,1.82
2022-12-09T06:10:14.512Z,1.80
2022-12-09T06:11:19.735Z,1.77
2022-12-09T06:12:24.061Z,1.75
2022-12-09T06:13:27.338Z,1.73
2022-12-09T06:14:32.533Z,1.71
2022-12-09T06:15:35.173Z,1.69
2022-12-09T06:16:38.252Z,1.69
2022-12-09T06:17:40.420Z,1.67
2022-12-09T06:18:43.627Z,1.64
2022-12-09T06:19:45.596Z,1.64
2022-12-09T06:20:48.554Z,1.62
2022-12-09T06:21:50.655Z,1.59
2022-12-09T06:22:53.544Z,1.58
2022-12-09T06:23:55.720Z,1.58
2022-12-09T06:24:58.805Z,1.58
2022-12-09T06:26:00.850Z,1.60
2022-12-09T06:27:04.033Z,1.62
2022-12-09T06:28:07.468Z,1.64
2022-12-09T06:29:10.541Z,1.64
2022-12-09T06:30:12.612Z,1.66
2022-12-09T06:31:15.562Z,1.66
2022-12-09T06:32:18.989Z,1.68
2022-12-09T06:33:52.490Z,1.70
2022-12-09T06:34:43.913Z,1.70
2022-12-09T06:35:46.887Z,1.69
2022-12-09T06:36:48.736Z,1.70
2022-12-09T06:37:52.396Z,1.71
2022-12-09T06:38:55.362Z,1.73
2022-12-09T06:39:58.340Z,1.74
2022-12-09T06:41:00.598Z,1.74
2022-12-09T06:42:04.384Z,1.75
2022-12-09T06:43:07.613Z,1.76
2022-12-09T06:44:14.304Z,1.77
2022-12-09T06:45:20.599Z,1.78
2022-12-09T06:46:23.837Z,1.78
2022-12-09T06:47:27.280Z,1.77
2022-12-09T06:48:29.366Z,1.75
2022-12-09T06:49:32.300Z,1.72
2022-12-09T06:50:34.219Z,1.69
2022-12-09T06:51:37.049Z,1.68
2022-12-09T06:52:40.106Z,1.64
2022-12-09T06:53:42.365Z,1.61
2022-12-09T06:54:45.538Z,1.56
2022-12-09T06:55:48.790Z,1.51
2022-12-09T06:56:52.022Z,1.48
2022-12-09T06:57:54.036Z,1.45
2022-12-09T06:58:58.173Z,1.43
2022-12-09T07:00:01.948Z,1.41
2022-12-09T07:01:07.110Z,1.40
2022-12-09T07:02:11.042Z,1.38
2022-12-09T07:03:14.473Z,1.34
2022-12-09T07:04:17.805Z,1.33
2022-12-09T07:05:21.330Z,1.30
2022-12-09T07:06:28.003Z,1.26
2022-12-09T07:07:30.448Z,1.24
2022-12-09T07:08:33.521Z,1.20
2022-12-09T07:09:35.461Z,1.17
2022-12-09T07:10:38.729Z,1.13
2022-12-09T07:11:42.421Z,1.11
2022-12-09T07:12:45.817Z,1.09
2022-12-09T07:13:48.681Z,1.07
2022-12-09T07:14:52.782Z,1.05
2022-12-09T07:15:55.603Z,1.05
2022-12-09T07:16:58.877Z,1.04
2022-12-09T07:18:01.118Z,1.02
2022-12-09T07:19:05.275Z,1.02
2022-12-09T07:20:08.619Z,1.02
2022-12-09T07:21:13.289Z,1.00
2022-12-09T07:22:17.265Z,1.00
2022-12-09T07:23:19.532Z,1.00
2022-12-09T07:24:22.605Z,1.00
2022-12-09T07:25:24.493Z,0.99
2022-12-09T07:26:27.400Z,0.99
2022-12-09T07:27:29.324Z,0.98
2022-12-09T07:28:32.282Z,0.99
2022-12-09T07:29:34.333Z,0.97
2022-12-09T07:30:39.657Z,0.97
2022-12-09T07:31:42.978Z,0.97
2022-12-09T07:32:45.145Z,0.99
2022-12-09T07:33:49.029Z,1.05
2022-12-09T07:34:52.008Z,1.13
2022-12-09T07:35:54.548Z,1.24
2022-12-09T07:36:57.409Z,1.33
2022-12-09T07:38:00.446Z,1.41
2022-12-09T07:39:06.982Z,1.44
2022-12-09T07:40:10.517Z,1.45
2022-12-09T07:41:18.300Z,1.42
2022-12-09T07:42:21.621Z,1.39
2022-12-09T07:43:23.695Z,1.35
2022-12-09T07:44:28.159Z,1.32
2022-12-09T07:45:31.460Z,1.29
2022-12-09T07:46:34.986Z,1.29
2022-12-09T07:47:37.791Z,1.28
2022-12-09T07:48:40.167Z,1.27
2022-12-09T07:49:43.784Z,1.27
2022-12-09T07:50:46.011Z,1.29
2022-12-09T07:51:49.038Z,1.29
2022-12-09T07:52:50.901Z,1.28
2022-12-09T07:53:54.184Z,1.29
2022-12-09T07:54:59.377Z,1.30
2022-12-09T07:56:03.375Z,1.29
2022-12-09T07:57:05.710Z,1.31
2022-12-09T07:58:08.407Z,1.31
2022-12-09T07:59:13.912Z,1.34
2022-12-09T08:00:17.765Z,1.34
2022-12-09T08:01:21.368Z,1.35
2022-12-09T08:02:25.773Z,1.36
2022-12-09T08:03:27.643Z,1.38
2022-12-09T08:04:31.842Z,1.37
2022-12-09T08:05:34.852Z,1.39
2022-12-09T08:06:38.051Z,1.39
2022-12-09T08:07:44.463Z,1.40
2022-12-09T08:08:47.380Z,1.39
2022-12-09T08:09:50.588Z,1.37
2022-12-09T08:10:54.677Z,1.37
2022-12-09T08:11:57.580Z,1.35
2022-12-09T08:12:59.513Z,1.35
2022-12-09T08:14:10.558Z,1.35
2022-12-09T08:15:14.725Z,1.35
2022-12-09T08:16:18.904Z,1.37
2022-12-09T08:17:23.003Z,1.39
2022-12-09T08:18:27.342Z,1.40
2022-12-09T08:19:30.501Z,1.42
2022-12-09T08:20:33.742Z,1.42
2022-12-09T08:21:35.970Z,1.43
2022-12-09T08:22:39.762Z,1.42
2022-12-09T08:23:41.940Z,1.41
2022-12-09T08:24:44.922Z,1.41
2022-12-09T08:25:48.039Z,1.40
2022-12-09T08:26:51.456Z,1.39
2022-12-09T08:27:53.621Z,1.37
2022-12-09T08:28:56.714Z,1.34
2022-12-09T08:30:00.743Z,1.31
2022-12-09T08:31:08.399Z,1.31
2022-12-09T08:32:11.406Z,1.30
2022-12-09T08:33:13.175Z,1.32
2022-12-09T08:34:17.569Z,1.32
2022-12-09T08:35:19.620Z,1.35
2022-12-09T08:36:24.099Z,1.36
2022-12-09T08:37:26.043Z,1.37
2022-12-09T08:38:28.862Z,1.40
2022-12-09T08:39:33.080Z,1.42
2022-12-09T08:40:35.138Z,1.43
2022-12-09T08:41:39.896Z,1.43
2022-12-09T08:42:43.146Z,1.46
2022-12-09T08:43:46.929Z,1.46
2022-12-09T08:44:51.239Z,1.48
2022-12-09T08:45:55.394Z,1.50
2022-12-09T08:46:58.545Z,1.52
2022-12-09T08:48:00.639Z,1.55
2022-12-09T08:49:05.218Z,1.56
2022-12-09T08:50:11.276Z,1.56
2022-12-09T08:51:14.587Z,1.56
2022-12-09T08:52:17.698Z,1.58
2022-12-09T08:53:19.781Z,1.60
2022-12-09T08:54:24.978Z,1.63
2022-12-09T08:55:27.137Z,1.64
2022-12-09T08:56:30.607Z,1.65
2022-12-09T08:57:33.818Z,1.65
2022-12-09T08:58:35.695Z,1.64
2022-12-09T08:59:44.826Z,1.65
2022-12-09T09:00:47.521Z,1.65
2022-12-09T09:01:51.449Z,1.68
2022-12-09T09:02:53.815Z,1.66
2022-12-09T09:03:56.868Z,1.68
2022-12-09T09:05:00.557Z,1.67
2022-12-09T09:06:10.434Z,1.68
2022-12-09T09:07:14.053Z,1.67
2022-12-09T09:08:15.939Z,1.69
2022-12-09T09:09:20.302Z,1.70
2022-12-09T09:10:22.507Z,1.72
2022-12-09T09:11:26.894Z,1.75
2022-12-09T09:12:29.892Z,1.77
2022-12-09T09:13:31.953Z,1.80
2022-12-09T09:14:34.997Z,1.85
2022-12-09T09:15:39.208Z,1.87
2022-12-09T09:16:44.422Z,1.89
2022-12-09T09:17:51.229Z,1.90
2022-12-09T09:18:55.373Z,1.90
2022-12-09T09:19:58.665Z,1.90
2022-12-09T09:21:00.597Z,1.91
2022-12-09T09:22:04.971Z,1.89
2022-12-09T09:23:06.838Z,1.89
2022-12-09T09:24:12.125Z,1.88
2022-12-09T09:25:16.085Z,1.87
2022-12-09T09:26:20.076Z,1.90
2022-12-09T09:27:23.040Z,1.91
2022-12-09T09:28:30.670Z,1.94
2022-12-09T09:29:34.951Z,1.97
2022-12-09T09:30:37.078Z,2.00
2022-12-09T09:31:40.149Z,2.03
2022-12-09T09:32:43.130Z,2.05
2022-12-09T09:33:46.002Z,2.09
2022-12-09T09:34:50.713Z,2.12
2022-12-09T09:35:55.433Z,2.17
2022-12-09T09:36:58.600Z,2.21
2022-12-09T09:38:03.798Z,2.22
2022-12-09T09:39:07.134Z,2.25
2022-12-09T09:40:10.967Z,2.27
2022-12-09T09:41:21.773Z,2.29
2022-12-09T09:42:30.285Z,2.33
2022-12-09T09:43:34.360Z,2.37
2022-12-09T09:44:40.161Z,2.37
2022-12-09T09:45:43.834Z,2.39
2022-12-09T09:46:49.137Z,2.41
2022-12-09T09:47:54.540Z,2.46
2022-12-09T09:48:59.085Z,2.48
2022-12-09T09:50:05.889Z,2.51
2022-12-09T09:51:14.630Z,2.56
2022-12-09T09:52:19.871Z,2.61
2022-12-09T09:53:26.837Z,2.65
2022-12-09T09:54:28.689Z,2.69
2022-12-09T09:55:36.824Z,2.74
2022-12-09T09:56:41.111Z,2.80
2022-12-09T09:57:47.927Z,2.84
2022-12-09T09:58:56.541Z,2.89
2022-12-09T10:00:09.696Z,2.94
2022-12-09T10:01:15.861Z,2.98
2022-12-09T10:02:21.035Z,3.02
2022-12-09T10:03:37.230Z,3.09
2022-12-09T10:04:49.752Z,3.13
2022-12-09T10:05:55.124Z,3.19
2022-12-09T10:07:07.085Z,3.26
2022-12-09T10:08:28.901Z,3.35
2022-12-09T10:09:39.390Z,3.42
2022-12-09T10:10:45.623Z,3.50
2022-12-09T10:11:56.554Z,3.57
2022-12-09T10:13:14.341Z,3.63
2022-12-09T10:14:24.350Z,3.68
2022-12-09T10:15:31.451Z,3.72
2022-12-09T10:16:42.714Z,3.76
2022-12-09T10:17:51.217Z,3.80
2022-12-09T10:19:09.114Z,3.85
2022-12-09T10:20:16.869Z,3.89
2022-12-09T10:21:21.713Z,3.93
2022-12-09T10:22:29.779Z,3.98
2022-12-09T10:23:34.153Z,4.02
2022-12-09T10:24:40.363Z,4.07
2022-12-09T10:25:45.761Z,4.13
2022-12-09T10:26:57.037Z,4.19
2022-12-09T10:28:05.789Z,4.27
2022-12-09T10:29:14.208Z,4.36
2022-12-09T10:30:19.068Z,4.44
2022-12-09T10:31:22.772Z,4.50
2022-12-09T10:32:26.646Z,4.55
2022-12-09T10:33:31.470Z,4.60
2022-12-09T10:34:33.817Z,4.67
2022-12-09T10:35:36.736Z,4.76
2022-12-09T10:36:40.252Z,4.85
2022-12-09T10:37:43.063Z,4.93
2022-12-09T10:38:47.474Z,5.00
2022-12-09T10:39:50.488Z,5.04
2022-12-09T10:41:00.702Z,5.10
2022-12-09T10:42:21.526Z,5.14
2022-12-09T10:43:38.654Z,5.17
2022-12-09T10:44:42.425Z,5.20
2022-12-09T10:46:16.905Z,5.21
2022-12-09T10:47:25.059Z,5.24
2022-12-09T10:48:33.123Z,5.28
2022-12-09T10:49:37.219Z,5.32
2022-12-09T10:50:39.687Z,5.35
2022-12-09T10:51:48.902Z,5.36
2022-12-09T10:52:52.076Z,5.37
2022-12-09T10:53:57.761Z,5.37
2022-12-09T10:55:01.121Z,5.37
2022-12-09T10:56:03.564Z,5.35
2022-12-09T10:57:24.488Z,5.31
2022-12-09T10:58:29.030Z,5.27
2022-12-09T10:59:32.803Z,5.23
2022-12-09T11:00:35.900Z,5.16
2022-12-09T11:01:50.659Z,5.11
2022-12-09T11:02:56.792Z,5.08
2022-12-09T11:03:59.890Z,5.03
2022-12-09T11:05:24.697Z,5.04
2022-12-09T11:06:30.670Z,5.06
2022-12-09T11:07:33.885Z,5.11
2022-12-09T11:08:36.350Z,5.13
2022-12-09T11:09:43.510Z,5.13
2022-12-09T11:10:50.129Z,5.11
2022-12-09T11:11:53.547Z,5.10
2022-12-09T11:13:04.464Z,5.08
2022-12-09T11:14:23.094Z,5.06
2022-12-09T11:15:29.650Z,5.07
2022-12-09T11:16:32.959Z,5.08
2022-12-09T11:17:36.261Z,5.10
2022-12-09T11:18:45.327Z,5.12
2022-12-09T11:19:51.809Z,5.14
2022-12-09T11:20:56.316Z,5.17
2022-12-09T11:22:31.679Z,5.19
2022-12-09T11:23:35.640Z,5.19
2022-12-09T11:24:40.768Z,5.18
2022-12-09T11:25:53.126Z,5.16
2022-12-09T11:26:56.229Z,5.14
2022-12-09T11:28:01.368Z,5.14
2022-12-09T11:29:07.533Z,5.15
2022-12-09T11:30:15.822Z,5.18
2022-12-09T11:31:30.265Z,5.23
2022-12-09T11:32:55.353Z,5.26
2022-12-09T11:34:01.294Z,5.29
2022-12-09T11:35:03.852Z,5.32
2022-12-09T11:36:09.714Z,5.32
2022-12-09T11:37:11.608Z,5.33
2022-12-09T11:38:18.751Z,5.30
2022-12-09T11:39:25.303Z,5.29
2022-12-09T11:40:29.263Z,5.26
2022-12-09T11:41:49.357Z,5.26
2022-12-09T11:42:52.802Z,5.26
2022-12-09T11:43:57.075Z,5.22
2022-12-09T11:45:04.285Z,5.20
2022-12-09T11:46:17.824Z,5.19
2022-12-09T11:47:29.462Z,5.19
2022-12-09T11:48:40.049Z,5.16
2022-12-09T11:49:50.189Z,5.18
2022-12-09T11:50:53.154Z,5.18
2022-12-09T11:52:08.088Z,5.22
2022-12-09T11:53:26.913Z,5.26
2022-12-09T11:54:34.404Z,5.27
2022-12-09T11:55:42.212Z,5.27
2022-12-09T11:56:45.072Z,5.29
2022-12-09T11:57:50.688Z,5.28
2022-12-09T11:58:55.661Z,5.30
2022-12-09T12:00:00.209Z,5.32
2022-12-09T12:01:06.747Z,5.35
2022-12-09T12:02:14.508Z,5.33
2022-12-09T12:03:21.944Z,5.33
2022-12-09T12:04:28.124Z,5.33
2022-12-09T12:05:35.069Z,5.29
2022-12-09T12:06:42.502Z,5.26
2022-12-09T12:07:51.180Z,5.24
2022-12-09T12:08:57.013Z,5.25
2022-12-09T12:09:59.112Z,5.26
2022-12-09T12:11:15.122Z,5.24
2022-12-09T12:12:22.344Z,5.24
2022-12-09T12:13:28.776Z,5.29
2022-12-09T12:14:31.492Z,5.35
2022-12-09T12:15:40.973Z,5.40
2022-12-09T12:16:47.635Z,5.46
2022-12-09T12:17:53.709Z,5.49
2022-12-09T12:19:01.939Z,5.53
2022-12-09T12:20:06.322Z,5.50
2022-12-09T12:21:32.468Z,5.46
2022-12-09T12:23:13.722Z,5.42
2022-12-09T12:24:47.256Z,5.42
2022-12-09T12:25:54.980Z,5.38
2022-12-09T12:27:11.184Z,5.32
2022-12-09T12:28:31.318Z,5.30
2022-12-09T12:29:45.540Z,5.26
2022-12-09T12:30:52.843Z,5.22
2022-12-09T12:32:06.805Z,5.23
2022-12-09T12:34:00.453Z,5.28
2022-12-09T12:35:01.568Z,5.33
2022-12-09T12:36:07.435Z,5.35
2022-12-09T12:37:21.521Z,5.41
2022-12-09T12:38:32.850Z,5.41
2022-12-09T12:39:43.335Z,5.44
2022-12-09T12:40:51.598Z,5.42
2022-12-09T12:41:58.577Z,5.37
2022-12-09T12:43:30.749Z,5.36
2022-12-09T12:45:01.451Z,5.26
2022-12-09T12:46:19.272Z,5.14
2022-12-09T12:47:26.199Z,5.09
2022-12-09T12:48:35.798Z,4.94
2022-12-09T12:50:15.537Z,4.84
2022-12-09T12:51:26.255Z,4.79
2022-12-09T12:52:55.447Z,4.77
2022-12-09T12:54:07.278Z,4.72
2022-12-09T12:55:20.140Z,4.71
2022-12-09T12:56:25.621Z,4.73
2022-12-09T12:57:32.696Z,4.75
2022-12-09T12:58:45.630Z,4.73
2022-12-09T12:59:52.215Z,4.71
2022-12-09T13:01:00.532Z,4.68
2022-12-09T13:02:11.780Z,4.63
2022-12-09T13:03:21.998Z,4.60
2022-12-09T13:04:28.431Z,4.51
2022-12-09T13:05:35.173Z,4.47
2022-12-09T13:06:42.040Z,4.44
2022-12-09T13:07:47.876Z,4.37
2022-12-09T13:08:59.744Z,4.33
2022-12-09T13:10:14.466Z,4.30
2022-12-09T13:11:21.411Z,4.27
2022-12-09T13:12:40.171Z,4.26
2022-12-09T13:13:49.316Z,4.19
2022-12-09T13:14:53.583Z,4.17
2022-12-09T13:15:59.478Z,4.14
2022-12-09T13:17:01.869Z,4.10
2022-12-09T13:18:12.987Z,4.07
2022-12-09T13:19:17.714Z,4.04
2022-12-09T13:20:25.151Z,4.00
2022-12-09T13:21:28.064Z,3.97
2022-12-09T13:22:34.227Z,3.94
2022-12-09T13:23:49.206Z,3.92
2022-12-09T13:25:00.284Z,3.89
2022-12-09T13:26:25.128Z,3.85
2022-12-09T13:27:34.449Z,3.81
2022-12-09T13:28:43.402Z,3.77
2022-12-09T13:29:54.615Z,3.73
2022-12-09T13:30:59.036Z,3.71
2022-12-09T13:32:07.999Z,3.69
2022-12-09T13:33:25.512Z,3.66
2022-12-09T13:34:36.479Z,3.63
2022-12-09T13:35:43.603Z,3.64
2022-12-09T13:36:48.309Z,3.61
2022-12-09T13:37:57.751Z,3.64
2022-12-09T13:39:00.444Z,3.61
2022-12-09T13:40:03.446Z,3.62
2022-12-09T13:41:58.171Z,3.62
2022-12-09T13:43:17.787Z,3.60
2022-12-09T13:44:19.722Z,3.61
2022-12-09T13:45:27.799Z,3.61
2022-12-09T13:46:30.444Z,3.60
2022-12-09T13:47:36.655Z,3.61
2022-12-09T13:48:45.575Z,3.63
2022-12-09T13:49:54.108Z,3.67
2022-12-09T13:50:59.436Z,3.68
2022-12-09T13:52:02.173Z,3.69
2022-12-09T13:53:05.354Z,3.70
2022-12-09T13:54:14.742Z,3.72
2022-12-09T13:55:39.984Z,3.72
2022-12-09T13:56:44.038Z,3.73
2022-12-09T13:57:52.922Z,3.74
2022-12-09T13:59:23.459Z,3.74
2022-12-09T14:00:27.079Z,3.73
2022-12-09T14:01:34.110Z,3.73
2022-12-09T14:02:40.506Z,3.73
2022-12-09T14:03:53.033Z,3.71
2022-12-09T14:05:01.140Z,3.69
2022-12-09T14:06:07.524Z,3.67
2022-12-09T14:07:21.035Z,3.66
2022-12-09T14:08:26.908Z,3.64
2022-12-09T14:09:46.039Z,3.63
2022-12-09T14:10:50.331Z,3.62
2022-12-09T14:11:55.479Z,3.62
2022-12-09T14:13:20.475Z,3.62
2022-12-09T14:14:50.865Z,3.58
2022-12-09T14:16:33.825Z,3.54
2022-12-09T14:18:02.132Z,3.49
2022-12-09T14:19:51.647Z,3.43
2022-12-09T14:21:23.439Z,3.41
2022-12-09T14:22:37.257Z,3.32
2022-12-09T14:23:39.944Z,3.31
2022-12-09T14:24:42.198Z,3.34
2022-12-09T14:26:01.615Z,3.31
2022-12-09T14:27:19.570Z,3.32
2022-12-09T14:28:36.794Z,3.27
2022-12-09T14:29:48.203Z,3.26
2022-12-09T14:30:52.337Z,3.25
2022-12-09T14:32:04.633Z,3.24
2022-12-09T14:33:22.213Z,3.23
2022-12-09T14:34:43.002Z,3.24
2022-12-09T14:35:47.019Z,3.22
2022-12-09T14:36:54.696Z,3.20